Time;durP1;ratioP1;P1;durP2;ratioP2;P2;SDS_P1;SDS_P2;PMS_P1;PMS_P2;Temp;Humidity;BMP_temperature;BMP_pressure;BME280_temperature;BME280_humidity;BME280_pressure;Samples;Min_cycle;Max_cycle;Signal;HPM_P1;HPM_P2
2023/11/26 00:02:02;;;;;;;39.03;29.98;;;;;;;-145.63;55.42;39151.38;4945020;29;20023;-66
2023/11/26 00:04:27;;;;;;;38.83;28.40;;;;;;;-145.63;55.48;39151.38;4945055;29;20046;-66
2023/11/26 00:06:53;;;;;;;38.30;29.10;;;;;;;-145.63;55.25;39204.16;4945296;29;20031;-67
2023/11/26 00:09:19;;;;;;;32.30;25.73;;;;;;;-145.63;55.34;39176.78;4945276;29;20099;-67
2023/11/26 00:11:46;;;;;;;33.17;24.42;;;;;;;-145.63;55.60;39180.69;4945353;29;20023;-68
2023/11/26 00:14:12;;;;;;;33.72;26.77;;;;;;;-145.63;55.62;39204.16;4926444;29;20040;-67
2023/11/26 00:16:38;;;;;;;35.88;27.65;;;;;;;-145.63;55.45;39168.97;4945008;29;20044;-68
2023/11/26 00:19:05;;;;;;;34.13;25.40;;;;;;;-145.63;55.22;39176.78;4945288;29;20054;-67
2023/11/26 00:21:34;;;;;;;36.17;25.05;;;;;;;-145.63;55.10;39163.09;4947961;29;20032;-67
2023/11/26 00:24:00;;;;;;;33.55;25.63;;;;;;;-145.63;55.55;39188.53;4949062;29;20053;-69
2023/11/26 00:26:26;;;;;;;33.83;25.95;;;;;;;-145.63;55.49;39135.72;4949058;29;20308;-67
2023/11/26 00:28:53;;;;;;;33.70;26.98;;;;;;;-145.63;55.64;39194.38;4949120;29;20028;-67
2023/11/26 00:31:20;;;;;;;33.83;26.00;;;;;;;-145.63;55.64;39204.16;4947266;29;20043;-68
2023/11/26 00:33:48;;;;;;;33.55;25.60;;;;;;;-145.63;55.65;39180.69;4948691;29;20032;-66
2023/11/26 00:36:21;;;;;;;36.15;26.45;;;;;;;-145.63;55.32;39178.75;4948833;29;20208;-68
2023/11/26 00:38:47;;;;;;;34.25;23.60;;;;;;;-145.63;55.63;39165.06;4948902;29;20047;-67
2023/11/26 00:41:13;;;;;;;35.47;25.83;;;;;;;-145.63;56.11;39186.56;4948867;29;20035;-68
2023/11/26 00:43:40;;;;;;;36.80;25.27;;;;;;;-145.63;55.85;39182.66;4948359;29;20300;-67
2023/11/26 00:46:06;;;;;;;34.15;25.95;;;;;;;-145.63;56.12;39125.94;4948643;29;20072;-67
2023/11/26 00:48:31;;;;;;;36.45;26.65;;;;;;;-145.63;56.25;39174.84;4951035;29;20027;-67
2023/11/26 00:50:57;;;;;;;37.80;26.40;;;;;;;-145.63;56.11;39176.78;4952456;29;20083;-67
2023/11/26 00:53:24;;;;;;;37.92;27.40;;;;;;;-145.63;55.88;39174.84;4948736;29;20030;-67
2023/11/26 00:55:50;;;;;;;36.28;27.05;;;;;;;-145.63;56.38;39178.75;4948463;29;20028;-67
2023/11/26 00:58:16;;;;;;;36.53;26.17;;;;;;;-145.63;56.35;39167.00;4948386;29;20359;-67
2023/11/26 01:00:42;;;;;;;34.78;25.73;;;;;;;-145.63;56.24;39159.19;4948466;29;20034;-67
2023/11/26 01:03:08;;;;;;;37.45;28.23;;;;;;;-145.63;56.13;39182.66;4947274;29;20208;-69
2023/11/26 01:05:34;;;;;;;36.97;27.25;;;;;;;-145.63;56.03;39149.41;4948374;29;20091;-68
2023/11/26 01:08:03;;;;;;;37.00;26.77;;;;;;;-145.63;55.91;39174.84;4948191;29;20047;-68
2023/11/26 01:10:29;;;;;;;35.60;27.35;;;;;;;-145.63;55.92;39196.34;4948234;29;20024;-67
2023/11/26 01:12:54;;;;;;;35.28;25.40;;;;;;;-145.63;56.10;39178.75;4948264;29;20301;-67
2023/11/26 01:15:20;;;;;;;34.83;27.05;;;;;;;-145.63;55.99;39176.78;4948079;29;20020;-67
2023/11/26 01:17:47;;;;;;;37.03;26.73;;;;;;;-145.63;55.97;39202.22;4931133;29;20315;-66
2023/11/26 01:20:13;;;;;;;35.63;26.42;;;;;;;-145.63;56.10;39145.50;4948133;29;20082;-65
2023/11/26 01:22:39;;;;;;;36.25;26.33;;;;;;;-145.63;55.94;39155.28;4947777;29;20032;-67
2023/11/26 01:25:06;;;;;;;36.40;26.30;;;;;;;-145.63;56.35;39176.78;4948262;29;20067;-66
2023/11/26 01:27:35;;;;;;;35.60;25.48;;;;;;;-145.63;56.43;39163.09;4947863;29;20079;-66
2023/11/26 01:30:01;;;;;;;38.25;27.33;;;;;;;-145.63;56.80;39192.44;4947897;29;20082;-66
2023/11/26 01:32:31;;;;;;;41.88;27.70;;;;;;;-145.63;56.46;39168.97;4947921;29;20110;-66
2023/11/26 01:34:57;;;;;;;37.20;26.35;;;;;;;-145.63;56.63;39151.38;4947957;29;20066;-67
2023/11/26 01:37:23;;;;;;;37.17;27.17;;;;;;;-145.63;56.67;39172.88;4947749;29;20024;-66
2023/11/26 01:39:48;;;;;;;38.05;25.80;;;;;;;-145.63;56.33;39135.72;4947670;29;20049;-66
2023/11/26 01:42:14;;;;;;;35.17;26.08;;;;;;;-145.63;56.65;39178.75;4947510;29;20032;-66
2023/11/26 01:44:40;;;;;;;35.90;24.85;;;;;;;-145.63;56.22;39178.75;4947469;29;20027;-67
2023/11/26 01:47:06;;;;;;;36.95;25.42;;;;;;;-145.63;56.94;39180.69;4947607;29;20031;-67
2023/11/26 01:49:34;;;;;;;36.58;25.25;;;;;;;-145.63;56.93;39167.00;4954209;29;20209;-67
2023/11/26 01:52:00;;;;;;;34.67;25.30;;;;;;;-145.63;56.76;39204.16;4946190;29;20075;-66
2023/11/26 01:54:29;;;;;;;34.17;25.40;;;;;;;-145.63;56.55;39147.44;4947390;29;20120;-65
2023/11/26 01:56:56;;;;;;;34.50;25.13;;;;;;;-145.63;56.53;39153.31;4928779;29;20032;-66
2023/11/26 01:59:22;;;;;;;36.67;26.08;;;;;;;-145.63;56.64;39159.19;4947696;29;20053;-66
2023/11/26 02:01:48;;;;;;;36.63;25.90;;;;;;;-145.63;56.11;39190.47;4962874;28;20030;-67
2023/11/26 02:04:13;;;;;;;32.20;23.27;;;;;;;-145.63;55.82;39186.56;4955951;28;20340;-67
2023/11/26 02:06:39;;;;;;;38.22;24.85;;;;;;;-145.63;55.86;39198.31;4947403;29;20110;-67
2023/11/26 02:09:06;;;;;;;34.35;24.65;;;;;;;-145.63;55.28;39192.44;4947363;29;20031;-69
2023/11/26 02:11:32;;;;;;;33.58;25.08;;;;;;;-145.63;55.86;39168.97;4947468;29;20031;-68
2023/11/26 02:13:58;;;;;;;34.25;24.48;;;;;;;-145.63;55.22;39188.53;4947364;29;20047;-68
2023/11/26 02:16:24;;;;;;;35.58;24.63;;;;;;;-145.63;55.73;39172.88;4947447;29;20027;-68
2023/11/26 02:18:50;;;;;;;33.03;23.98;;;;;;;-145.63;55.77;39196.34;4954462;29;20070;-68
2023/11/26 02:21:16;;;;;;;31.70;23.98;;;;;;;-145.63;55.95;39196.34;4966269;29;20330;-67
2023/11/26 02:23:45;;;;;;;36.15;25.80;;;;;;;-145.63;56.41;39145.50;4966044;28;20034;-68
2023/11/26 02:26:10;;;;;;;34.88;24.90;;;;;;;-145.63;56.04;39180.69;4948229;29;20355;-66
2023/11/26 02:28:38;;;;;;;32.70;24.48;;;;;;;-145.63;55.51;39178.75;4946642;29;20044;-65
2023/11/26 02:31:04;;;;;;;36.47;24.50;;;;;;;-145.63;55.69;39145.50;4946765;29;20049;-65
2023/11/26 02:33:31;;;;;;;32.42;24.13;;;;;;;-145.63;55.95;39167.00;4946536;29;20027;-65
2023/11/26 02:35:57;;;;;;;33.67;24.20;;;;;;;-145.63;55.41;39202.22;4947015;29;20035;-67
2023/11/26 02:38:23;;;;;;;30.48;22.80;;;;;;;-145.63;55.26;39204.16;4946672;29;20095;-66
2023/11/26 02:40:48;;;;;;;30.60;22.02;;;;;;;-145.63;55.06;39239.38;4945614;29;20052;-67
2023/11/26 02:43:17;;;;;;;33.25;23.65;;;;;;;-145.63;55.59;39188.53;4945891;29;20226;-67
2023/11/26 02:45:47;;;;;;;32.67;22.75;;;;;;;-145.63;55.33;39208.06;4945976;29;20024;-67
2023/11/26 02:48:13;;;;;;;27.33;20.55;;;;;;;-145.63;55.52;39188.53;4944084;29;20043;-67
2023/11/26 02:50:39;;;;;;;31.20;21.83;;;;;;;-145.63;55.11;39182.66;4945295;29;20354;-67
2023/11/26 02:53:05;;;;;;;31.15;21.77;;;;;;;-145.63;55.57;39139.63;4945992;29;20031;-66
2023/11/26 02:55:30;;;;;;;29.80;22.23;;;;;;;-145.63;55.52;39080.97;4945955;29;20046;-67
2023/11/26 02:57:56;;;;;;;26.33;20.20;;;;;;;-145.63;55.34;39163.09;4946181;29;20095;-68
2023/11/26 03:00:22;;;;;;;29.08;20.02;;;;;;;-145.63;55.42;39172.88;4945617;29;20216;-67
2023/11/26 03:02:48;;;;;;;30.27;22.08;;;;;;;-145.63;55.66;39159.19;4930841;29;20031;-67
2023/11/26 03:05:21;;;;;;;31.25;23.70;;;;;;;-145.63;55.30;39180.69;4945880;29;20343;-68
2023/11/26 03:07:57;;;;;;;31.20;23.42;;;;;;;-145.63;54.89;39176.78;4941546;29;20058;-66
2023/11/26 03:13:27;;;;;;;30.05;22.45;;;;;;;-145.63;55.07;39157.22;4963000;29;20293;-65
2023/11/26 03:15:53;;;;;;;30.20;22.30;;;;;;;-145.63;54.20;39163.09;4952527;29;20028;-65
2023/11/26 03:18:19;;;;;;;29.52;23.65;;;;;;;-145.63;54.32;39184.59;4944656;29;20036;-65
2023/11/26 03:20:45;;;;;;;26.67;20.95;;;;;;;-145.63;54.22;39182.66;4945591;29;20024;-66
2023/11/26 03:23:13;;;;;;;29.83;21.83;;;;;;;-145.63;55.11;39165.06;4945522;29;20040;-66
2023/11/26 03:25:39;;;;;;;31.10;23.23;;;;;;;-145.63;54.46;39168.97;4945012;29;20024;-67
2023/11/26 03:28:05;;;;;;;29.67;23.13;;;;;;;-145.63;54.42;39200.25;4945950;29;20196;-66
2023/11/26 03:30:32;;;;;;;32.30;23.75;;;;;;;-145.63;54.90;39151.38;4944491;29;20055;-67
2023/11/26 03:32:58;;;;;;;31.48;23.70;;;;;;;-145.63;54.71;39188.53;4945406;29;20051;-67
2023/11/26 03:35:24;;;;;;;31.15;24.42;;;;;;;-145.63;54.31;39155.28;4945179;29;20040;-69
2023/11/26 03:37:51;;;;;;;32.63;24.73;;;;;;;-145.63;54.50;39188.53;4945500;29;20035;-68
2023/11/26 03:40:23;;;;;;;34.75;24.38;;;;;;;-145.63;54.95;39170.91;4954203;29;20031;-69
2023/11/26 03:42:50;;;;;;;33.95;25.50;;;;;;;-145.63;55.42;39165.06;4945486;29;20131;-69
2023/11/26 03:45:16;;;;;;;30.42;24.30;;;;;;;-145.63;55.51;39167.00;4945555;29;20034;-68
2023/11/26 03:47:42;;;;;;;32.60;24.80;;;;;;;-145.63;55.53;39165.06;4945165;29;20359;-69
2023/11/26 03:50:11;;;;;;;31.55;24.95;;;;;;;-145.63;55.63;39155.28;4947319;29;20091;-68
2023/11/26 03:52:39;;;;;;;31.42;24.80;;;;;;;-145.63;55.41;39206.13;4944386;29;20053;-67
2023/11/26 03:55:06;;;;;;;34.40;25.83;;;;;;;-145.63;55.72;39153.31;4943264;29;20046;-67
2023/11/26 03:57:32;;;;;;;34.13;25.38;;;;;;;-145.63;56.05;39153.31;4944900;29;20042;-66
2023/11/26 03:59:59;;;;;;;33.53;25.80;;;;;;;-145.63;55.51;39176.78;4945425;29;20087;-67
2023/11/26 04:02:25;;;;;;;37.03;27.25;;;;;;;-145.63;55.74;39161.13;4944630;29;20105;-65
2023/11/26 04:04:52;;;;;;;34.42;25.92;;;;;;;-145.63;55.51;39180.69;4945141;29;20024;-67
2023/11/26 04:07:20;;;;;;;35.08;27.48;;;;;;;-145.63;55.52;39161.13;4944836;29;20028;-66
2023/11/26 04:09:48;;;;;;;34.88;25.88;;;;;;;-145.63;55.17;39176.78;4945123;29;20031;-67
2023/11/26 04:12:13;;;;;;;36.08;27.17;;;;;;;-145.63;55.34;39180.69;4944437;29;20035;-65
2023/11/26 04:14:55;;;;;;;31.80;25.75;;;;;;;-145.63;55.34;39153.31;4940997;29;20031;-69
2023/11/26 04:17:21;;;;;;;29.63;23.15;;;;;;;-145.63;55.74;39168.97;4943565;29;20047;-68
2023/11/26 04:19:50;;;;;;;31.88;25.02;;;;;;;-145.63;55.59;39161.13;4944984;29;20028;-67
2023/11/26 04:22:20;;;;;;;33.15;23.92;;;;;;;-145.63;55.80;39161.13;4944225;29;20265;-67
2023/11/26 04:24:49;;;;;;;29.30;22.42;;;;;;;-145.63;55.50;39153.31;4943829;29;20070;-67
2023/11/26 04:27:16;;;;;;;31.65;22.45;;;;;;;-145.63;55.85;39153.31;4944699;29;20099;-66
2023/11/26 04:29:43;;;;;;;31.77;23.17;;;;;;;-145.63;55.70;39176.78;4945170;29;20485;-66
2023/11/26 04:32:09;;;;;;;30.40;22.08;;;;;;;-145.63;55.42;39184.59;4942878;29;20236;-67
2023/11/26 04:34:34;;;;;;;31.05;22.00;;;;;;;-145.63;55.26;38979.28;4944814;29;20099;-67
2023/11/26 04:37:00;;;;;;;29.23;21.38;;;;;;;-145.63;55.19;39161.13;4944613;29;20038;-67
2023/11/26 04:39:26;;;;;;;28.25;21.02;;;;;;;-145.63;55.31;39176.78;4944845;29;20027;-66
2023/11/26 04:41:52;;;;;;;27.50;20.98;;;;;;;-145.63;55.42;39165.06;4944782;29;20098;-67
2023/11/26 04:44:19;;;;;;;27.35;21.70;;;;;;;-145.63;55.25;39165.06;4944855;29;20074;-67
2023/11/26 04:46:47;;;;;;;30.73;22.95;;;;;;;-145.63;55.20;39163.09;4945011;29;20190;-67
2023/11/26 04:49:13;;;;;;;28.73;21.27;;;;;;;-145.63;55.17;39159.19;4951783;29;20082;-67
2023/11/26 04:51:41;;;;;;;29.75;22.08;;;;;;;-145.63;55.52;39155.28;4944200;29;20030;-67
2023/11/26 04:54:11;;;;;;;30.13;22.35;;;;;;;-145.63;55.30;39155.28;4944759;29;20049;-69
2023/11/26 04:56:40;;;;;;;28.92;20.73;;;;;;;-145.63;55.61;39172.88;4944662;29;20102;-67
2023/11/26 04:59:08;;;;;;;28.27;21.88;;;;;;;-145.63;55.50;39165.06;4944874;29;20028;-68
2023/11/26 05:01:38;;;;;;;26.00;20.17;;;;;;;-145.63;55.40;39176.78;4944821;29;20367;-68
2023/11/26 05:04:06;;;;;;;26.80;20.05;;;;;;;-145.63;55.40;39155.28;4944806;29;20020;-65
2023/11/26 05:06:31;;;;;;;28.67;21.55;;;;;;;-145.63;55.78;39190.47;4945893;29;20058;-67
2023/11/26 05:08:58;;;;;;;30.08;20.67;;;;;;;-145.63;55.99;39145.50;4948613;29;20033;-66
2023/11/26 05:11:26;;;;;;;30.77;21.35;;;;;;;-145.63;55.97;39168.97;4948280;29;20027;-66
2023/11/26 05:13:51;;;;;;;29.02;20.90;;;;;;;-145.63;55.47;39145.50;4948402;29;20027;-67
2023/11/26 05:16:17;;;;;;;28.65;21.10;;;;;;;-145.63;55.22;39172.88;4948110;29;20292;-67
2023/11/26 05:18:43;;;;;;;28.45;21.85;;;;;;;-145.63;55.41;39161.13;4948140;29;20038;-66
2023/11/26 05:21:09;;;;;;;28.33;21.38;;;;;;;-145.63;55.56;39137.69;4947992;29;20192;-66
2023/11/26 05:23:35;;;;;;;29.05;21.35;;;;;;;-145.63;55.21;39192.44;4947918;29;20042;-67
2023/11/26 05:26:02;;;;;;;29.50;21.17;;;;;;;-145.63;55.11;39165.06;4946930;29;20027;-67
2023/11/26 05:28:29;;;;;;;28.80;21.50;;;;;;;-145.63;55.52;39174.84;4947945;29;20024;-68
2023/11/26 05:30:55;;;;;;;28.23;21.10;;;;;;;-145.63;55.41;39149.41;4947980;29;20040;-65
2023/11/26 05:33:21;;;;;;;29.98;23.02;;;;;;;-145.63;55.71;39184.59;4948015;29;20031;-65
2023/11/26 05:35:47;;;;;;;28.73;21.83;;;;;;;-145.63;55.83;39208.06;4947977;29;20032;-67
2023/11/26 05:38:13;;;;;;;29.17;22.85;;;;;;;-145.63;55.74;39176.78;4947888;29;20045;-67
2023/11/26 05:40:39;;;;;;;30.13;21.77;;;;;;;-145.63;55.99;39172.88;4947585;29;20268;-67
2023/11/26 05:43:05;;;;;;;32.50;22.98;;;;;;;-145.63;55.83;39176.78;4947583;29;20047;-70
2023/11/26 05:45:30;;;;;;;29.65;22.55;;;;;;;-145.63;56.08;39182.66;4947598;29;20067;-67
2023/11/26 05:47:56;;;;;;;30.00;22.20;;;;;;;-145.63;56.17;39167.00;4947502;29;20027;-67
2023/11/26 05:50:22;;;;;;;32.55;24.52;;;;;;;-145.63;56.49;39145.50;4955490;29;20028;-66
2023/11/26 05:52:47;;;;;;;31.90;24.02;;;;;;;-145.63;56.68;39165.06;4946455;29;20465;-66
2023/11/26 05:55:13;;;;;;;32.08;24.00;;;;;;;-145.63;56.81;39139.63;4947793;29;20027;-66
2023/11/26 05:57:39;;;;;;;36.70;23.83;;;;;;;-145.63;56.92;39186.56;4947542;29;20027;-67
2023/11/26 06:00:05;;;;;;;32.67;24.75;;;;;;;-145.63;57.29;39141.59;4947668;29;20051;-68
2023/11/26 06:02:31;;;;;;;35.92;24.88;;;;;;;-145.63;57.98;39147.44;4947587;29;20287;-68
2023/11/26 06:04:57;;;;;;;35.67;25.80;;;;;;;-145.63;57.59;39090.75;4947581;29;20035;-67
2023/11/26 06:07:23;;;;;;;32.58;24.23;;;;;;;-145.63;57.38;39120.06;4946606;29;20027;-66
2023/11/26 06:09:49;;;;;;;32.17;24.02;;;;;;;-145.63;57.26;39106.38;4947398;29;20031;-67
2023/11/26 06:12:14;;;;;;;34.13;24.98;;;;;;;-145.63;57.16;39122.03;4952641;29;20035;-67
2023/11/26 06:14:40;;;;;;;33.35;25.00;;;;;;;-145.63;56.97;39104.44;4956488;29;20287;-66
2023/11/26 06:17:06;;;;;;;33.90;25.90;;;;;;;-145.63;57.21;39100.50;4955681;28;20103;-67
2023/11/26 06:19:31;;;;;;;35.33;25.48;;;;;;;-145.63;56.80;39133.75;4939578;29;20090;-66
2023/11/26 06:21:57;;;;;;;31.50;24.40;;;;;;;-145.63;56.54;39129.84;4955044;29;20319;-66
2023/11/26 06:24:23;;;;;;;34.78;26.35;;;;;;;-145.63;56.93;39094.66;4954788;29;20023;-67
2023/11/26 06:26:51;;;;;;;36.85;26.13;;;;;;;-145.63;56.86;39145.50;4957133;29;20087;-66
2023/11/26 06:29:17;;;;;;;34.95;26.02;;;;;;;-145.63;56.57;39235.47;4953777;29;20023;-67
2023/11/26 06:31:44;;;;;;;36.42;25.23;;;;;;;-145.63;55.92;39110.28;4954975;29;20033;-67
2023/11/26 06:34:10;;;;;;;33.85;24.67;;;;;;;-145.63;56.01;39123.97;4955211;29;20032;-67
2023/11/26 06:36:36;;;;;;;37.08;26.63;;;;;;;-145.63;55.86;39135.72;4955087;29;20292;-67
2023/11/26 06:39:06;;;;;;;33.35;23.98;;;;;;;-145.63;56.11;39127.91;4954392;28;20027;-69
2023/11/26 06:41:32;;;;;;;37.35;26.33;;;;;;;-145.63;56.08;39143.53;4960348;29;20038;-68
2023/11/26 06:44:00;;;;;;;31.08;23.20;;;;;;;-145.63;55.36;39133.75;4951750;29;20024;-68
2023/11/26 06:46:28;;;;;;;35.75;25.15;;;;;;;-145.63;55.51;39157.22;4946164;29;20106;-69
2023/11/26 06:48:54;;;;;;;37.15;25.35;;;;;;;-145.63;55.57;39139.63;4956937;29;20035;-69
2023/11/26 06:51:21;;;;;;;33.20;24.70;;;;;;;-145.63;55.32;39141.59;4953921;29;20071;-67
2023/11/26 06:53:48;;;;;;;33.03;25.13;;;;;;;-145.63;55.55;39106.38;4956347;29;20078;-69
2023/11/26 06:56:15;;;;;;;35.05;25.83;;;;;;;-145.63;55.73;39141.59;4953805;28;20039;-68
2023/11/26 06:58:43;;;;;;;38.72;27.45;;;;;;;-145.63;55.34;39131.81;4952147;29;20126;-68
2023/11/26 07:01:10;;;;;;;40.00;28.55;;;;;;;-145.63;55.34;39131.81;4953080;29;20046;-68
2023/11/26 07:03:37;;;;;;;37.22;27.67;;;;;;;-145.63;55.43;39155.28;4957815;29;20371;-69
2023/11/26 07:06:07;;;;;;;38.50;27.85;;;;;;;-145.63;55.81;39123.97;4955195;29;20031;-67
2023/11/26 07:08:36;;;;;;;39.30;27.45;;;;;;;-145.63;55.67;39125.94;4956810;29;20372;-67
2023/11/26 07:11:02;;;;;;;39.45;27.45;;;;;;;-145.63;56.06;39118.13;4952254;29;20023;-67
2023/11/26 07:13:28;;;;;;;37.90;27.98;;;;;;;-145.63;55.82;39110.28;4956136;29;20200;-66
2023/11/26 07:15:54;;;;;;;40.13;28.00;;;;;;;-145.63;55.40;39096.59;4956114;29;20035;-67
2023/11/26 07:18:20;;;;;;;38.72;26.40;;;;;;;-145.63;55.58;39123.97;4950784;29;20268;-67
2023/11/26 07:20:46;;;;;;;36.55;27.77;;;;;;;-145.63;56.05;39123.97;4956188;29;20023;-66
2023/11/26 07:23:13;;;;;;;39.50;27.20;;;;;;;-145.63;56.45;38809.13;4945675;29;20094;-66
2023/11/26 07:25:39;;;;;;;39.42;26.73;;;;;;;-145.63;56.28;39102.47;4945516;29;20067;-66
2023/11/26 07:28:11;;;;;;;41.05;29.23;;;;;;;-145.63;56.27;39100.50;4945945;29;20363;-66
2023/11/26 07:30:40;;;;;;;41.65;30.83;;;;;;;-145.63;56.04;39100.50;4956321;29;20028;-67
2023/11/26 07:33:06;;;;;;;37.97;28.05;;;;;;;-145.63;56.37;39075.09;4951869;29;20024;-68
2023/11/26 07:35:32;;;;;;;37.38;27.48;;;;;;;-145.63;56.71;39114.22;4955939;29;20035;-67
2023/11/26 07:38:00;;;;;;;38.38;29.02;;;;;;;-145.63;56.80;39092.69;4956060;29;20028;-67
2023/11/26 07:40:26;;;;;;;38.65;29.17;;;;;;;-145.63;56.43;39114.22;4951657;29;20015;-67
2023/11/26 07:42:52;;;;;;;44.72;30.80;;;;;;;-145.63;56.42;39102.47;4949508;29;20268;-68
2023/11/26 07:45:18;;;;;;;42.70;30.67;;;;;;;-145.63;56.18;39131.81;4954407;29;20032;-66
2023/11/26 07:47:43;;;;;;;43.22;29.55;;;;;;;-145.63;55.67;39112.25;4951648;29;20019;-67
2023/11/26 07:50:09;;;;;;;41.45;31.02;;;;;;;-145.63;55.55;39118.13;4943979;29;20067;-66
2023/11/26 07:52:37;;;;;;;39.60;29.15;;;;;;;-145.63;56.04;39106.38;4945445;29;20063;-67
2023/11/26 07:55:06;;;;;;;39.47;28.10;;;;;;;-145.63;55.86;39123.97;4945309;29;20031;-67
2023/11/26 07:57:32;;;;;;;41.25;28.98;;;;;;;-145.63;56.16;39262.84;4943277;29;20074;-66
2023/11/26 07:59:59;;;;;;;40.33;28.85;;;;;;;-145.63;55.93;39122.03;4950639;29;20347;-66
2023/11/26 08:02:24;;;;;;;43.10;28.98;;;;;;;-145.63;55.30;39123.97;4949317;29;20134;-69
2023/11/26 08:04:53;;;;;;;41.75;30.13;;;;;;;-145.63;55.85;39114.22;4947354;29;20359;-66
2023/11/26 08:07:23;;;;;;;43.85;30.88;;;;;;;-145.63;55.75;39133.75;4944847;29;20019;-65
2023/11/26 08:09:52;;;;;;;42.45;30.23;;;;;;;-145.63;55.24;39122.03;4944359;29;20186;-67
2023/11/26 08:12:23;;;;;;;41.17;29.50;;;;;;;-145.63;55.76;39143.53;4945028;29;20047;-65
2023/11/26 08:14:52;;;;;;;40.13;29.10;;;;;;;-145.63;55.03;39123.97;4940092;29;20344;-66
2023/11/26 08:17:22;;;;;;;41.17;29.98;;;;;;;-145.63;55.07;39125.94;4941818;29;20075;-66
2023/11/26 08:19:48;;;;;;;44.35;31.42;;;;;;;-145.63;55.15;39135.72;4943972;29;20032;-65
2023/11/26 08:22:14;;;;;;;42.20;29.63;;;;;;;-145.63;54.95;39114.22;4944389;29;20062;-69
2023/11/26 08:24:42;;;;;;;44.72;29.45;;;;;;;-145.63;54.70;39129.84;4944659;29;20040;-68
2023/11/26 08:27:13;;;;;;;99.15;67.88;;;;;;;-145.63;54.53;39131.81;4942808;29;20073;-65
2023/11/26 08:29:42;;;;;;;41.42;29.60;;;;;;;-145.63;54.09;39141.59;4944138;29;20032;-67
2023/11/26 08:32:11;;;;;;;38.92;28.42;;;;;;;-145.63;54.09;39123.97;4944958;29;20052;-67
2023/11/26 08:34:41;;;;;;;40.20;28.70;;;;;;;-145.63;54.03;39141.59;4936190;29;20036;-67
2023/11/26 08:37:08;;;;;;;40.00;30.10;;;;;;;-145.63;53.59;39114.22;4944165;29;20045;-66
2023/11/26 08:39:36;;;;;;;40.25;29.50;;;;;;;-145.63;54.29;39123.97;4945049;29;20154;-66
2023/11/26 08:42:04;;;;;;;43.00;29.65;;;;;;;-145.63;53.78;39137.69;4946026;29;20347;-68
2023/11/26 08:44:33;;;;;;;38.05;27.90;;;;;;;-145.63;54.24;39118.13;4951177;29;20030;-67
2023/11/26 08:47:00;;;;;;;39.00;28.83;;;;;;;-145.63;54.69;39123.97;4945979;29;20047;-65
2023/11/26 08:49:28;;;;;;;38.90;27.83;;;;;;;-145.63;54.97;39080.97;4948271;29;20251;-66
2023/11/26 08:51:56;;;;;;;42.25;29.83;;;;;;;-145.63;55.08;39127.91;4947310;29;20023;-66
2023/11/26 08:54:22;;;;;;;38.35;27.80;;;;;;;-145.63;55.23;38926.47;4931013;29;20114;-67
2023/11/26 08:56:50;;;;;;;45.97;30.52;;;;;;;-145.63;55.34;39137.69;4930052;29;20064;-67
2023/11/26 08:59:16;;;;;;;42.53;30.02;;;;;;;-145.63;54.29;39129.84;4951711;29;20062;-67
2023/11/26 09:01:42;;;;;;;39.47;29.35;;;;;;;-145.63;54.53;39139.63;4953267;29;20536;-66
2023/11/26 09:04:10;;;;;;;41.72;29.45;;;;;;;-145.63;54.31;39127.91;4956179;29;20074;-66
2023/11/26 09:06:38;;;;;;;42.90;29.40;;;;;;;-145.63;54.38;39123.97;4957753;29;20094;-68
2023/11/26 09:09:04;;;;;;;45.55;30.70;;;;;;;-145.63;54.72;39110.28;4957575;29;20074;-67
2023/11/26 09:11:30;;;;;;;42.03;30.55;;;;;;;-145.63;54.25;39135.72;4955334;29;20027;-65
2023/11/26 09:13:58;;;;;;;41.17;28.63;;;;;;;-145.63;54.08;39110.28;4955088;29;20066;-65
2023/11/26 09:16:25;;;;;;;40.78;28.60;;;;;;;-145.63;54.37;39131.81;4957338;28;20066;-66
2023/11/26 09:18:51;;;;;;;37.47;27.40;;;;;;;-145.63;55.11;39108.34;4955011;28;20099;-66
2023/11/26 09:21:18;;;;;;;39.55;27.80;;;;;;;-145.63;54.91;39172.88;4957138;29;20387;-66
2023/11/26 09:23:44;;;;;;;38.92;29.25;;;;;;;-145.63;54.38;39098.56;4956315;29;20053;-66
2023/11/26 09:26:11;;;;;;;37.53;26.67;;;;;;;-145.63;54.46;39168.97;4956745;29;20038;-66
2023/11/26 09:28:37;;;;;;;39.67;27.80;;;;;;;-145.63;54.20;39137.69;4956642;29;20321;-66
2023/11/26 09:31:08;;;;;;;40.00;28.20;;;;;;;-145.63;54.53;39116.16;4955932;29;20201;-66
2023/11/26 09:33:36;;;;;;;37.67;27.48;;;;;;;-145.63;54.95;39122.03;4957131;29;20065;-65
2023/11/26 09:36:05;;;;;;;37.50;28.15;;;;;;;-145.63;55.20;39137.69;4951451;29;20142;-65
2023/11/26 09:38:30;;;;;;;39.72;28.92;;;;;;;-145.63;54.59;39131.81;4952961;29;20024;-65
2023/11/26 09:40:56;;;;;;;39.78;28.38;;;;;;;-145.63;54.40;39100.50;4955781;29;20295;-66
2023/11/26 09:43:25;;;;;;;39.33;27.83;;;;;;;-145.63;54.71;39125.94;4955825;28;20027;-66
2023/11/26 09:45:51;;;;;;;35.05;25.58;;;;;;;-145.63;55.05;39122.03;4955746;29;20038;-66
2023/11/26 09:48:17;;;;;;;36.95;27.17;;;;;;;-145.63;54.97;39118.13;4956545;29;20027;-65
2023/11/26 09:50:50;;;;;;;41.78;29.40;;;;;;;-145.63;54.47;39129.84;4953798;29;20050;-65
2023/11/26 09:53:17;;;;;;;39.97;29.30;;;;;;;-145.63;54.32;39137.69;4955267;28;20042;-65
2023/11/26 09:55:44;;;;;;;42.65;29.92;;;;;;;-145.63;54.07;39135.72;4955983;29;20279;-65
2023/11/26 09:58:10;;;;;;;40.08;30.25;;;;;;;-145.63;53.54;39161.13;4955456;29;20062;-67
2023/11/26 10:00:35;;;;;;;39.65;30.25;;;;;;;-145.63;53.61;39151.38;4955112;29;20027;-66
2023/11/26 10:03:02;;;;;;;38.53;27.73;;;;;;;-145.63;53.57;39157.22;4957571;29;20023;-66
2023/11/26 10:05:31;;;;;;;36.15;26.45;;;;;;;-145.63;54.07;39174.84;4955357;29;20134;-66
2023/11/26 10:07:56;;;;;;;35.97;26.42;;;;;;;-145.63;53.92;39118.13;4955238;29;20185;-66
2023/11/26 10:10:25;;;;;;;39.42;27.60;;;;;;;-145.63;53.67;39135.72;4953997;29;20038;-66
2023/11/26 10:12:53;;;;;;;33.92;23.23;;;;;;;-145.63;54.02;39123.97;4956639;29;20043;-66
2023/11/26 10:15:21;;;;;;;36.20;25.75;;;;;;;-145.63;53.98;39155.28;4956571;29;20030;-65
2023/11/26 10:18:04;;;;;;;35.05;24.55;;;;;;;-145.63;54.21;39145.50;4955253;29;20059;-66
2023/11/26 10:20:31;;;;;;;35.90;26.23;;;;;;;-145.63;53.40;39149.41;4955122;29;20045;-66
2023/11/26 10:22:57;;;;;;;35.50;25.38;;;;;;;-145.63;53.78;39122.03;4953057;29;20160;-67
2023/11/26 10:25:24;;;;;;;36.80;26.77;;;;;;;-145.63;53.65;39127.91;4957453;29;20248;-67
2023/11/26 10:27:55;;;;;;;39.50;26.58;;;;;;;-145.63;53.64;39133.75;4956433;29;20023;-67
2023/11/26 10:30:33;;;;;;;33.50;23.85;;;;;;;-145.63;53.52;39137.69;4954106;28;20047;-66
2023/11/26 10:33:06;;;;;;;36.05;25.63;;;;;;;-145.63;53.18;39137.69;4952853;29;20223;-66
2023/11/26 10:35:55;;;;;;;32.58;22.92;;;;;;;-145.63;54.02;39135.72;4952751;29;20046;-67
2023/11/26 10:38:28;;;;;;;35.70;24.73;;;;;;;-145.63;53.72;39143.53;4957317;29;20042;-69
2023/11/26 10:40:56;;;;;;;35.38;24.10;;;;;;;-145.63;53.65;39198.31;4955590;29;20050;-67
2023/11/26 10:43:22;;;;;;;33.38;24.60;;;;;;;-145.63;54.25;39084.88;4954277;29;20078;-67
2023/11/26 10:45:50;;;;;;;32.55;23.70;;;;;;;-145.63;53.85;39137.69;4954809;29;20035;-67
2023/11/26 10:48:16;;;;;;;31.58;23.33;;;;;;;-145.63;53.89;39188.53;4955859;29;20073;-66
2023/11/26 10:50:56;;;;;;;35.72;24.48;;;;;;;-145.63;54.10;39153.31;4953813;29;20031;-66
2023/11/26 10:53:35;;;;;;;34.60;25.20;;;;;;;-145.63;53.95;39170.91;4955194;29;20032;-68
2023/11/26 10:56:03;;;;;;;34.90;25.77;;;;;;;-145.63;53.69;39131.81;4954163;29;20037;-66
2023/11/26 10:58:38;;;;;;;33.40;24.95;;;;;;;-145.63;53.54;39131.81;4955709;29;20027;-68
2023/11/26 11:01:04;;;;;;;32.20;24.55;;;;;;;-145.63;53.77;39071.19;4955593;29;20350;-67
2023/11/26 11:03:31;;;;;;;34.35;25.30;;;;;;;-145.63;54.28;39168.97;4956456;28;20027;-67
2023/11/26 11:05:59;;;;;;;34.28;24.25;;;;;;;-145.63;53.84;39149.41;4957042;28;20223;-67